createdAt,value
2024-03-06T00:05:03.124Z,17.42
2024-03-06T00:07:54.325Z,15.68
2024-03-06T00:10:32.937Z,14.48
2024-03-06T00:13:20.058Z,14.27
2024-03-06T00:15:58.650Z,14.48
2024-03-06T00:21:15.552Z,11.52
2024-03-06T00:24:01.053Z,12.48
2024-03-06T00:26:40.495Z,12.10
2024-03-06T00:29:18.910Z,11.73
2024-03-06T00:32:03.939Z,11.82
2024-03-06T00:34:44.139Z,12.00
2024-03-06T00:37:21.163Z,11.73
2024-03-06T00:39:56.221Z,11.45
2024-03-06T00:42:34.096Z,12.18
2024-03-06T00:45:21.389Z,11.35
2024-03-06T00:48:02.644Z,10.63
2024-03-06T00:51:00.549Z,9.23
2024-03-06T00:53:32.640Z,9.10
2024-03-06T00:56:08.667Z,9.80
2024-03-06T00:58:45.865Z,8.68
2024-03-06T01:01:26.210Z,8.93
2024-03-06T01:04:05.304Z,8.10
2024-03-06T01:06:50.212Z,8.70
2024-03-06T01:09:44.207Z,8.70
2024-03-06T01:12:33.256Z,7.85
2024-03-06T01:15:12.610Z,8.52
2024-03-06T01:18:01.186Z,8.65
2024-03-06T01:20:47.494Z,9.00
2024-03-06T01:23:30.093Z,8.43
2024-03-06T01:26:08.676Z,8.77
2024-03-06T01:28:47.567Z,9.57
2024-03-06T01:31:23.000Z,10.32
2024-03-06T01:34:02.395Z,11.07
2024-03-06T01:36:38.316Z,11.20
2024-03-06T01:39:16.207Z,11.18
2024-03-06T01:41:52.857Z,11.18
2024-03-06T01:44:32.254Z,12.30
2024-03-06T01:47:08.873Z,11.68
2024-03-06T01:50:01.413Z,12.30
2024-03-06T01:52:40.531Z,13.05
2024-03-06T01:55:23.594Z,13.05
2024-03-06T01:58:09.916Z,13.23
2024-03-06T02:00:43.195Z,15.60
2024-03-06T02:03:29.489Z,15.02
2024-03-06T02:06:11.579Z,15.45
2024-03-06T02:08:46.753Z,17.13
2024-03-06T02:11:21.360Z,17.58
2024-03-06T02:14:00.761Z,16.98
2024-03-06T02:16:41.597Z,16.63
2024-03-06T02:19:22.082Z,16.33
2024-03-06T02:22:16.323Z,17.10
2024-03-06T02:24:55.136Z,17.10
2024-03-06T02:27:39.417Z,18.38
2024-03-06T02:30:16.567Z,18.02
2024-03-06T02:33:03.624Z,21.27
2024-03-06T02:35:41.141Z,19.65
2024-03-06T02:38:25.138Z,20.58
2024-03-06T02:41:03.371Z,21.88
2024-03-06T02:43:43.355Z,22.58
2024-03-06T02:46:18.855Z,22.70
2024-03-06T02:48:57.407Z,22.02
2024-03-06T02:51:37.622Z,23.25
2024-03-06T02:54:23.342Z,23.00
2024-03-06T02:56:58.307Z,22.58
2024-03-06T02:59:40.790Z,22.88
2024-03-06T03:02:21.291Z,22.55
2024-03-06T03:05:05.329Z,22.98
2024-03-06T03:07:47.375Z,23.70
2024-03-06T03:10:31.414Z,21.70
2024-03-06T03:13:12.911Z,24.45
2024-03-06T03:16:02.277Z,25.65
2024-03-06T03:18:45.525Z,25.73
2024-03-06T03:21:32.427Z,24.77
2024-03-06T03:24:08.551Z,25.63
2024-03-06T03:26:53.353Z,28.50
2024-03-06T03:29:37.670Z,26.15
2024-03-06T03:32:17.286Z,27.00
2024-03-06T03:34:59.438Z,29.08
2024-03-06T03:37:42.835Z,27.70
2024-03-06T03:40:23.673Z,26.77
2024-03-06T03:43:10.881Z,28.55
2024-03-06T03:45:49.074Z,27.48
2024-03-06T03:48:31.947Z,27.83
2024-03-06T03:51:09.802Z,28.50
2024-03-06T03:53:53.824Z,27.40
2024-03-06T03:56:39.163Z,26.73
2024-03-06T03:59:28.010Z,28.08
2024-03-06T04:02:07.404Z,27.58
2024-03-06T04:04:43.950Z,28.23
2024-03-06T04:07:22.543Z,29.05
2024-03-06T04:10:07.042Z,28.23
2024-03-06T04:12:48.485Z,28.85
2024-03-06T04:15:31.202Z,27.85
2024-03-06T04:18:10.049Z,29.35
2024-03-06T04:21:02.766Z,27.88
2024-03-06T04:23:40.698Z,29.90
2024-03-06T04:26:22.310Z,30.48
2024-03-06T04:28:54.155Z,33.72
2024-03-06T04:31:53.473Z,31.42
2024-03-06T04:34:34.268Z,31.45
2024-03-06T04:37:11.661Z,32.58
2024-03-06T04:39:46.660Z,33.38
2024-03-06T04:42:27.798Z,33.58
2024-03-06T04:47:59.685Z,35.10
2024-03-06T04:50:41.257Z,36.47
2024-03-06T04:55:59.948Z,37.40
2024-03-06T04:58:38.456Z,36.63
2024-03-06T05:01:14.618Z,36.00
2024-03-06T05:59:15.422Z,21.38
2024-03-06T06:01:51.673Z,19.88
2024-03-06T06:04:27.110Z,20.42
2024-03-06T06:07:06.438Z,22.02
2024-03-06T06:09:47.818Z,21.58
2024-03-06T06:12:29.295Z,22.75
2024-03-06T06:15:06.219Z,23.95
2024-03-06T06:17:43.414Z,25.67
2024-03-06T06:20:34.006Z,26.60
2024-03-06T06:23:16.464Z,27.55
2024-03-06T06:25:53.644Z,29.52
2024-03-06T06:28:42.314Z,30.38
2024-03-06T06:31:16.385Z,31.45
2024-03-06T06:33:58.930Z,33.65
2024-03-06T06:36:34.736Z,35.40
2024-03-06T06:39:31.096Z,34.63
2024-03-06T06:42:10.462Z,36.10
2024-03-06T06:44:55.246Z,32.97
2024-03-06T06:47:31.851Z,30.50
2024-03-06T06:50:09.614Z,31.83
2024-03-06T06:52:49.580Z,34.05
2024-03-06T06:55:32.984Z,34.83
2024-03-06T06:58:13.313Z,53.00
2024-03-06T07:01:09.920Z,36.77
2024-03-06T07:03:50.965Z,35.88
2024-03-06T07:06:31.960Z,34.20
2024-03-06T07:09:15.885Z,34.30
2024-03-06T07:12:08.132Z,35.17
2024-03-06T07:14:48.083Z,35.28
2024-03-06T07:17:37.068Z,32.67
2024-03-06T07:20:27.751Z,33.08
2024-03-06T07:23:02.488Z,28.40
2024-03-06T07:25:46.052Z,28.83
2024-03-06T07:28:36.850Z,29.27
2024-03-06T07:31:21.159Z,28.67
2024-03-06T07:33:58.868Z,28.08
2024-03-06T07:36:38.168Z,27.95
2024-03-06T07:39:17.321Z,31.38
2024-03-06T07:42:06.681Z,30.40
2024-03-06T07:44:47.778Z,32.28
2024-03-06T07:47:25.797Z,30.70
2024-03-06T07:50:28.681Z,29.52
2024-03-06T07:53:00.088Z,28.73
2024-03-06T07:55:39.969Z,27.20
2024-03-06T07:58:19.216Z,27.92
2024-03-06T08:00:59.602Z,29.15
2024-03-06T08:03:39.779Z,29.13
2024-03-06T08:06:28.654Z,31.70
2024-03-06T08:09:12.720Z,30.08
2024-03-06T08:11:55.743Z,31.10
2024-03-06T08:14:33.762Z,32.75
2024-03-06T08:17:14.329Z,32.05
2024-03-06T08:19:59.670Z,33.60
2024-03-06T08:22:47.532Z,34.08
2024-03-06T08:25:24.120Z,34.90
2024-03-06T08:28:08.164Z,34.17
2024-03-06T08:30:50.390Z,33.33
2024-03-06T08:33:30.045Z,33.10
2024-03-06T08:36:07.244Z,31.98
2024-03-06T08:38:55.965Z,32.80
2024-03-06T08:41:36.604Z,34.80
2024-03-06T08:44:13.570Z,36.00
2024-03-06T08:46:53.541Z,34.70
2024-03-06T08:49:41.675Z,34.35
2024-03-06T08:52:23.552Z,35.78
2024-03-06T08:55:04.172Z,37.25
2024-03-06T08:57:51.839Z,36.75
2024-03-06T09:00:30.922Z,35.35
2024-03-06T09:03:10.223Z,34.35
2024-03-06T09:05:51.979Z,36.05
2024-03-06T09:08:30.810Z,31.45
2024-03-06T09:11:21.268Z,31.58
2024-03-06T09:14:08.881Z,33.15
2024-03-06T09:16:45.056Z,32.88
2024-03-06T09:19:19.817Z,33.35
2024-03-06T09:21:57.792Z,35.00
2024-03-06T09:24:48.799Z,34.38
2024-03-06T09:27:37.510Z,33.33
2024-03-06T09:30:30.709Z,33.28
2024-03-06T09:33:14.134Z,33.60
2024-03-06T09:35:53.795Z,32.00
2024-03-06T09:38:36.369Z,31.42
2024-03-06T09:41:16.230Z,33.90
2024-03-06T09:44:05.860Z,32.70
2024-03-06T09:46:45.105Z,33.10
2024-03-06T09:49:24.347Z,34.78
2024-03-06T09:52:02.831Z,32.20
2024-03-06T09:54:49.489Z,30.15
2024-03-06T09:57:24.954Z,30.23
2024-03-06T10:00:21.581Z,31.38
2024-03-06T10:03:12.267Z,29.80
2024-03-06T10:05:55.667Z,33.35
2024-03-06T10:08:35.481Z,30.30
2024-03-06T10:11:14.395Z,33.42
2024-03-06T10:13:58.662Z,31.92
2024-03-06T10:16:38.547Z,32.58
2024-03-06T10:19:53.448Z,32.63
2024-03-06T10:22:42.768Z,34.00
2024-03-06T10:25:28.135Z,37.20
2024-03-06T10:28:20.273Z,36.28
2024-03-06T10:31:00.276Z,35.88
2024-03-06T10:33:44.440Z,36.63
2024-03-06T10:36:28.489Z,35.92
2024-03-06T10:39:12.162Z,38.65
2024-03-06T10:41:48.817Z,39.15
2024-03-06T10:44:38.072Z,40.72
2024-03-06T10:47:19.452Z,39.57
2024-03-06T10:50:11.725Z,35.13
2024-03-06T10:52:57.931Z,33.53
2024-03-06T10:55:42.162Z,34.42
2024-03-06T10:58:18.355Z,32.28
2024-03-06T11:00:52.627Z,32.50
2024-03-06T11:03:37.298Z,30.63
2024-03-06T11:06:26.055Z,30.75
2024-03-06T11:09:17.833Z,29.50
2024-03-06T11:12:06.535Z,31.17
2024-03-06T11:14:58.241Z,29.98
2024-03-06T11:17:35.790Z,29.05
2024-03-06T11:20:30.364Z,28.38
2024-03-06T11:23:26.613Z,29.50
2024-03-06T11:26:19.905Z,30.95
2024-03-06T11:28:55.045Z,29.27
2024-03-06T11:31:43.203Z,27.50
2024-03-06T11:34:21.568Z,29.33
2024-03-06T11:37:11.314Z,26.23
2024-03-06T11:40:03.591Z,25.98
2024-03-06T11:45:32.597Z,26.17
2024-03-06T11:48:28.939Z,25.25
2024-03-06T11:51:11.205Z,24.50
2024-03-06T11:53:50.670Z,25.15
2024-03-06T11:56:33.746Z,22.35
2024-03-06T11:59:09.237Z,22.55
2024-03-06T12:01:51.054Z,22.45
2024-03-06T12:04:30.505Z,23.90
2024-03-06T12:07:25.232Z,22.38
2024-03-06T12:10:02.727Z,24.38
2024-03-06T12:12:56.978Z,24.25
2024-03-06T12:15:38.258Z,26.95
2024-03-06T12:18:14.675Z,23.35
2024-03-06T12:20:54.390Z,24.65
2024-03-06T12:23:44.827Z,25.45
2024-03-06T12:26:27.355Z,26.02
2024-03-06T12:29:23.754Z,28.92
2024-03-06T12:31:59.952Z,28.08
2024-03-06T12:34:40.399Z,28.33
2024-03-06T12:37:21.352Z,29.38
2024-03-06T12:42:46.249Z,27.40
2024-03-06T12:45:32.449Z,26.77
2024-03-06T12:48:13.274Z,27.17
2024-03-06T12:50:55.231Z,28.63
2024-03-06T12:53:35.453Z,28.13
2024-03-06T12:56:24.891Z,27.93
2024-03-06T12:59:15.724Z,25.90
2024-03-06T13:01:59.336Z,28.15
2024-03-06T13:04:41.069Z,27.02
2024-03-06T13:07:19.809Z,26.80
2024-03-06T13:09:56.156Z,26.75
2024-03-06T13:12:31.489Z,26.23
2024-03-06T13:15:14.149Z,27.83
2024-03-06T13:18:05.741Z,27.83
2024-03-06T13:20:44.469Z,29.25
2024-03-06T13:23:23.285Z,31.08
2024-03-06T13:26:04.007Z,24.80
2024-03-06T13:28:39.977Z,11.63
2024-03-06T13:31:27.149Z,9.98
2024-03-06T13:34:08.054Z,7.25
2024-03-06T13:36:39.234Z,5.78
2024-03-06T13:39:16.969Z,5.78
2024-03-06T13:41:56.416Z,6.25
2024-03-06T13:44:50.382Z,12.23
2024-03-06T13:47:26.449Z,12.57
2024-03-06T13:50:17.465Z,14.73
2024-03-06T13:52:58.748Z,14.20
2024-03-06T13:55:37.190Z,16.88
2024-03-06T13:58:30.486Z,23.15
2024-03-06T14:01:08.169Z,25.65
2024-03-06T14:03:43.392Z,23.45
2024-03-06T14:06:30.945Z,25.08
2024-03-06T14:09:15.019Z,24.83
2024-03-06T14:11:54.450Z,24.00
2024-03-06T14:14:32.246Z,19.85
2024-03-06T14:17:15.352Z,19.38
2024-03-06T14:19:50.946Z,21.15
2024-03-06T14:22:42.724Z,19.52
2024-03-06T14:25:42.327Z,20.10
2024-03-06T14:28:19.848Z,22.27
2024-03-06T14:31:00.302Z,22.20
2024-03-06T14:33:40.862Z,18.60
2024-03-06T14:36:26.365Z,15.68
2024-03-06T14:39:20.172Z,20.48
2024-03-06T14:42:06.605Z,22.40
2024-03-06T14:44:51.515Z,21.42
2024-03-06T14:47:36.767Z,23.00
2024-03-06T14:50:21.121Z,22.55
2024-03-06T14:52:52.857Z,21.40
2024-03-06T14:55:35.551Z,17.80
2024-03-06T14:58:21.168Z,20.33
2024-03-06T15:01:03.471Z,17.13
2024-03-06T15:03:45.944Z,15.85
2024-03-06T15:06:27.830Z,16.00
2024-03-06T15:09:11.768Z,15.07
2024-03-06T15:12:00.620Z,15.32
2024-03-06T15:14:46.999Z,17.23
2024-03-06T15:17:23.224Z,17.90
2024-03-06T15:20:03.800Z,14.20
2024-03-06T15:22:43.492Z,13.95
2024-03-06T15:25:30.090Z,13.82
2024-03-06T15:28:26.528Z,15.82
2024-03-06T15:31:15.473Z,15.00
2024-03-06T15:33:52.600Z,13.75
2024-03-06T15:36:33.435Z,13.68
2024-03-06T15:39:11.706Z,12.48
2024-03-06T15:41:53.521Z,13.00
2024-03-06T15:44:40.022Z,15.40
2024-03-06T15:47:24.341Z,15.98
2024-03-06T15:50:05.348Z,15.98
2024-03-06T15:52:37.331Z,15.57
2024-03-06T15:55:25.652Z,17.48
2024-03-06T15:57:58.089Z,16.88
2024-03-06T16:01:01.248Z,17.35
2024-03-06T16:03:48.503Z,19.25
2024-03-06T16:06:39.753Z,19.20
2024-03-06T16:09:30.601Z,18.67
2024-03-06T16:12:15.268Z,20.70
2024-03-06T16:14:52.657Z,20.30
2024-03-06T16:17:34.892Z,21.63
2024-03-06T16:20:28.352Z,20.83
2024-03-06T16:23:11.969Z,20.35
2024-03-06T16:25:54.119Z,22.58
2024-03-06T16:28:30.252Z,22.90
2024-03-06T16:31:10.965Z,24.30
2024-03-06T16:33:56.608Z,24.05
2024-03-06T16:36:29.464Z,24.67
2024-03-06T16:39:17.882Z,25.98
2024-03-06T16:41:56.767Z,25.25
2024-03-06T16:44:43.459Z,26.33
2024-03-06T16:47:32.865Z,24.83
2024-03-06T16:50:21.483Z,24.50
2024-03-06T16:52:58.333Z,26.55
2024-03-06T16:55:39.584Z,53.08
2024-03-06T16:58:21.793Z,49.92
2024-03-06T17:01:02.076Z,69.65
2024-03-06T17:03:41.530Z,62.03
2024-03-06T17:06:33.311Z,69.03
2024-03-06T17:09:12.759Z,35.78
2024-03-06T17:12:06.224Z,26.77
2024-03-06T17:14:54.522Z,24.90
2024-03-06T17:17:41.468Z,26.15
2024-03-06T17:20:28.182Z,26.73
2024-03-06T17:23:20.202Z,41.63
2024-03-06T17:25:58.259Z,41.42
2024-03-06T17:28:52.346Z,47.45
2024-03-06T17:31:33.806Z,53.97
2024-03-06T17:34:17.550Z,35.55
2024-03-06T17:36:54.050Z,32.03
2024-03-06T17:39:37.519Z,28.38
2024-03-06T17:42:18.905Z,28.73
2024-03-06T17:44:59.957Z,29.63
2024-03-06T17:50:14.465Z,27.55
2024-03-06T17:53:02.079Z,27.02
2024-03-06T17:55:45.775Z,27.13
2024-03-06T17:58:40.275Z,28.55
2024-03-06T18:01:19.237Z,27.35
2024-03-06T18:04:02.092Z,28.77
2024-03-06T18:06:37.148Z,28.27
2024-03-06T18:09:19.123Z,30.25
2024-03-06T18:12:13.749Z,32.50
2024-03-06T18:14:47.806Z,31.45
2024-03-06T18:17:24.243Z,33.75
2024-03-06T18:20:07.582Z,31.42
2024-03-06T18:22:54.640Z,33.88
2024-03-06T18:25:35.311Z,34.38
2024-03-06T18:28:21.787Z,35.38
2024-03-06T18:31:02.576Z,34.45
2024-03-06T18:33:39.943Z,34.65
2024-03-06T18:36:15.270Z,33.97
2024-03-06T18:38:58.428Z,32.88
2024-03-06T18:41:35.056Z,33.10
2024-03-06T18:44:17.037Z,30.50
2024-03-06T18:47:00.013Z,31.60
2024-03-06T18:49:53.930Z,30.48
2024-03-06T18:52:32.894Z,30.88
2024-03-06T18:55:14.184Z,30.23
2024-03-06T18:58:05.868Z,31.27
2024-03-06T19:00:58.462Z,35.28
2024-03-06T19:03:34.163Z,33.35
2024-03-06T19:06:24.873Z,33.08
2024-03-06T19:09:04.887Z,32.88
2024-03-06T19:11:42.452Z,32.90
2024-03-06T19:14:25.188Z,34.35
2024-03-06T19:17:22.080Z,32.35
2024-03-06T19:20:02.479Z,31.00
2024-03-06T19:22:34.680Z,29.30
2024-03-06T19:25:19.905Z,29.15
2024-03-06T19:27:59.095Z,27.13
2024-03-06T19:30:34.287Z,25.30
2024-03-06T19:33:26.908Z,24.45
2024-03-06T19:36:11.783Z,23.10
2024-03-06T19:38:53.999Z,22.10
2024-03-06T19:41:33.270Z,21.35
2024-03-06T19:44:10.316Z,20.50
2024-03-06T19:47:11.121Z,21.30
2024-03-06T19:49:58.936Z,20.23
2024-03-06T19:52:45.510Z,20.00
2024-03-06T19:55:24.471Z,19.20
2024-03-06T19:58:00.533Z,19.50
2024-03-06T20:00:35.762Z,18.85
2024-03-06T20:03:16.239Z,19.00
2024-03-06T20:05:56.757Z,19.25
2024-03-06T20:08:37.034Z,19.20
2024-03-06T20:11:14.841Z,19.70
2024-03-06T20:14:14.211Z,19.05
2024-03-06T20:16:47.057Z,20.83
2024-03-06T20:19:34.145Z,19.92
2024-03-06T20:22:24.276Z,23.00
2024-03-06T20:25:02.583Z,19.70
2024-03-06T20:27:39.466Z,23.00
2024-03-06T20:30:25.846Z,29.33
2024-03-06T20:33:08.511Z,32.83
2024-03-06T20:35:50.560Z,35.33
2024-03-06T20:38:35.710Z,38.15
2024-03-06T20:41:16.397Z,38.22
2024-03-06T20:44:04.180Z,38.22
2024-03-06T20:46:36.262Z,41.15
2024-03-06T20:49:10.164Z,40.28
2024-03-06T20:51:56.570Z,37.90
2024-03-06T20:54:43.789Z,35.80
2024-03-06T20:57:28.649Z,37.45
2024-03-06T21:00:14.008Z,35.88
2024-03-06T21:02:55.791Z,35.13
2024-03-06T21:05:53.282Z,34.50
2024-03-06T21:08:35.542Z,33.92
2024-03-06T21:11:27.100Z,33.50
2024-03-06T21:14:03.355Z,34.03
2024-03-06T21:16:40.856Z,32.03
2024-03-06T21:19:26.530Z,32.15
2024-03-06T21:22:00.453Z,32.10
2024-03-06T21:24:43.159Z,32.15
2024-03-06T21:27:31.457Z,30.25
2024-03-06T21:30:10.116Z,30.08
2024-03-06T21:32:59.851Z,29.20
2024-03-06T21:38:40.441Z,28.40
2024-03-06T21:41:22.818Z,29.33
2024-03-06T21:44:09.960Z,27.65
2024-03-06T21:46:48.310Z,27.30
2024-03-06T21:49:24.616Z,27.88
2024-03-06T21:52:05.363Z,26.20
2024-03-06T21:54:50.617Z,25.10
2024-03-06T21:57:29.591Z,26.67
2024-03-06T22:00:26.137Z,27.73
2024-03-06T22:03:20.588Z,29.83
2024-03-06T22:05:53.733Z,30.08
2024-03-06T22:08:47.751Z,33.90
2024-03-06T22:11:26.932Z,31.25
2024-03-06T22:14:07.357Z,34.80
2024-03-06T22:16:48.607Z,35.25
2024-03-06T22:19:25.700Z,34.73
2024-03-06T22:22:08.896Z,33.00
2024-03-06T22:24:41.615Z,34.88
2024-03-06T22:27:21.703Z,32.95
2024-03-06T22:30:04.073Z,35.30
2024-03-06T22:32:51.035Z,33.30
2024-03-06T22:35:30.807Z,33.25
2024-03-06T22:38:11.864Z,32.15
2024-03-06T22:41:08.481Z,33.53
2024-03-06T22:43:46.087Z,33.72
2024-03-06T22:46:22.522Z,32.75
2024-03-06T22:49:12.677Z,32.70
2024-03-06T22:54:34.762Z,31.50
2024-03-06T22:57:14.084Z,33.83
2024-03-06T22:59:58.792Z,32.72
2024-03-06T23:02:38.716Z,32.17
2024-03-06T23:05:18.296Z,32.78
2024-03-06T23:08:01.262Z,32.70
2024-03-06T23:10:41.039Z,35.05
2024-03-06T23:13:21.353Z,34.13
2024-03-06T23:16:04.246Z,33.80
2024-03-06T23:18:46.473Z,33.95
2024-03-06T23:21:40.247Z,33.17
2024-03-06T23:24:18.016Z,32.65
2024-03-06T23:26:51.473Z,33.95
2024-03-06T23:29:22.342Z,32.90
2024-03-06T23:32:10.753Z,34.78
2024-03-06T23:34:49.656Z,35.33
2024-03-06T23:37:33.812Z,33.38
2024-03-06T23:40:20.239Z,33.63
2024-03-06T23:43:07.929Z,32.88
2024-03-06T23:45:43.684Z,32.78
2024-03-06T23:48:17.890Z,32.70
2024-03-06T23:51:10.328Z,33.90
2024-03-06T23:53:57.912Z,32.13
2024-03-06T23:56:36.994Z,33.97
2024-03-06T23:59:19.548Z,32.15
